Terminal Aerodrome Forecast
Issued by NWS

Home | Current Version | Previous Version | Text Only | Print | Product List | Glossary Off
Versions: 1 2 3 4 5 6 7 8 9 10 11 12 13 14 15 16 17 18 19 20 21 22 23 24 25 26 27 28 29 30 31 32 33 34

000
FTUS43 KLOT 191336 AAA
TAFORD
TAF AMD
KORD 191336Z 1914/2018 36003KT 3SM BR BKN004 OVC008
     FM191500 32005KT 6SM BR SCT004 BKN007 OVC015
     FM191800 30005KT P6SM BKN025
     FM192200 08007KT P6SM BKN030
     FM200000 06005KT P6SM BKN035
     FM200700 02010G16KT 6SM -SHRA BR FEW007 SCT010 OVC020
     FM201300 03011G17KT P6SM OVC020=

USA.gov is the U.S. government's official web portal to all federal, state and local government web resources and services.